sensor_id;sensor_type;location;lat;lon;timestamp;pressure;altitude;pressure_sealevel;temperature;humidity
74466;BME280;62916;50.044;15.938;2023-03-22T00:02:11;98883.27;;;21.83;45.61
74466;BME280;62916;50.044;15.938;2023-03-22T00:04:43;98885.83;;;21.84;45.50
74466;BME280;62916;50.044;15.938;2023-03-22T00:07:14;98881.17;;;21.81;45.52
74466;BME280;62916;50.044;15.938;2023-03-22T00:09:45;98878.09;;;21.79;45.79
74466;BME280;62916;50.044;15.938;2023-03-22T00:12:16;98878.55;;;21.79;45.74
74466;BME280;62916;50.044;15.938;2023-03-22T00:14:47;98876.56;;;21.78;45.98
74466;BME280;62916;50.044;15.938;2023-03-22T00:17:18;98878.94;;;21.77;45.79
74466;BME280;62916;50.044;15.938;2023-03-22T00:19:51;98878.18;;;21.76;45.78
74466;BME280;62916;50.044;15.938;2023-03-22T00:22:23;98878.11;;;21.72;45.88
74466;BME280;62916;50.044;15.938;2023-03-22T00:24:54;98875.80;;;21.72;46.02
74466;BME280;62916;50.044;15.938;2023-03-22T00:27:25;98874.05;;;21.72;45.89
74466;BME280;62916;50.044;15.938;2023-03-22T00:29:56;98873.91;;;21.71;45.98
74466;BME280;62916;50.044;15.938;2023-03-22T00:32:26;98868.23;;;21.70;45.86
74466;BME280;62916;50.044;15.938;2023-03-22T00:34:57;98867.41;;;21.68;45.99
74466;BME280;62916;50.044;15.938;2023-03-22T00:37:28;98865.98;;;21.68;46.03
74466;BME280;62916;50.044;15.938;2023-03-22T00:40:02;98860.55;;;21.65;46.24
74466;BME280;62916;50.044;15.938;2023-03-22T00:42:33;98864.10;;;21.66;46.15
74466;BME280;62916;50.044;15.938;2023-03-22T00:45:06;98856.96;;;21.65;46.23
74466;BME280;62916;50.044;15.938;2023-03-22T00:47:38;98857.10;;;21.66;46.29
74466;BME280;62916;50.044;15.938;2023-03-22T00:50:11;98857.59;;;21.66;46.14
74466;BME280;62916;50.044;15.938;2023-03-22T00:52:41;98857.87;;;21.69;46.00
74466;BME280;62916;50.044;15.938;2023-03-22T00:55:12;98854.73;;;21.73;46.15
74466;BME280;62916;50.044;15.938;2023-03-22T00:57:43;98848.67;;;21.75;46.23
74466;BME280;62916;50.044;15.938;2023-03-22T01:00:15;98842.00;;;21.75;45.98
74466;BME280;62916;50.044;15.938;2023-03-22T01:02:46;98844.70;;;21.74;46.12
74466;BME280;62916;50.044;15.938;2023-03-22T01:05:17;98840.70;;;21.71;46.19
74466;BME280;62916;50.044;15.938;2023-03-22T01:07:50;98841.80;;;21.70;46.14
74466;BME280;62916;50.044;15.938;2023-03-22T01:10:23;98840.45;;;21.71;46.14
74466;BME280;62916;50.044;15.938;2023-03-22T01:12:54;98839.64;;;21.71;46.12
74466;BME280;62916;50.044;15.938;2023-03-22T01:15:25;98835.95;;;21.72;46.08
74466;BME280;62916;50.044;15.938;2023-03-22T01:17:56;98828.70;;;21.74;46.05
74466;BME280;62916;50.044;15.938;2023-03-22T01:20:29;98822.11;;;21.70;46.30
74466;BME280;62916;50.044;15.938;2023-03-22T01:23:01;98823.77;;;21.72;46.19
74466;BME280;62916;50.044;15.938;2023-03-22T01:25:32;98819.06;;;21.71;46.17
74466;BME280;62916;50.044;15.938;2023-03-22T01:28:03;98812.57;;;21.67;46.40
74466;BME280;62916;50.044;15.938;2023-03-22T01:30:35;98813.50;;;21.67;46.21
74466;BME280;62916;50.044;15.938;2023-03-22T01:33:06;98808.85;;;21.65;46.46
74466;BME280;62916;50.044;15.938;2023-03-22T01:35:37;98807.56;;;21.65;46.45
74466;BME280;62916;50.044;15.938;2023-03-22T01:38:08;98806.06;;;21.66;46.29
74466;BME280;62916;50.044;15.938;2023-03-22T01:40:39;98804.14;;;21.66;46.27
74466;BME280;62916;50.044;15.938;2023-03-22T01:43:14;98798.77;;;21.65;46.43
74466;BME280;62916;50.044;15.938;2023-03-22T01:45:47;98796.91;;;21.67;46.46
74466;BME280;62916;50.044;15.938;2023-03-22T01:48:25;98796.56;;;21.65;46.35
74466;BME280;62916;50.044;15.938;2023-03-22T01:51:01;98795.41;;;21.62;46.50
74466;BME280;62916;50.044;15.938;2023-03-22T01:53:37;98792.61;;;21.61;46.54
74466;BME280;62916;50.044;15.938;2023-03-22T01:56:10;98791.45;;;21.62;46.48
74466;BME280;62916;50.044;15.938;2023-03-22T01:58:42;98793.45;;;21.64;46.39
74466;BME280;62916;50.044;15.938;2023-03-22T02:01:13;98797.49;;;21.64;46.72
74466;BME280;62916;50.044;15.938;2023-03-22T02:03:47;98792.92;;;21.64;46.58
74466;BME280;62916;50.044;15.938;2023-03-22T02:06:21;98795.54;;;21.63;46.53
74466;BME280;62916;50.044;15.938;2023-03-22T02:08:52;98802.21;;;21.61;46.51
74466;BME280;62916;50.044;15.938;2023-03-22T02:11:29;98798.76;;;21.61;46.75
74466;BME280;62916;50.044;15.938;2023-03-22T02:14:10;98802.77;;;21.63;46.62
74466;BME280;62916;50.044;15.938;2023-03-22T02:16:51;98803.31;;;21.64;46.50
74466;BME280;62916;50.044;15.938;2023-03-22T02:19:56;98803.64;;;21.62;46.60
74466;BME280;62916;50.044;15.938;2023-03-22T02:22:46;98804.90;;;21.62;46.46
74466;BME280;62916;50.044;15.938;2023-03-22T02:25:50;98804.20;;;21.61;46.46
74466;BME280;62916;50.044;15.938;2023-03-22T02:28:35;98810.35;;;21.59;46.39
74466;BME280;62916;50.044;15.938;2023-03-22T02:31:27;98810.58;;;21.59;46.54
74466;BME280;62916;50.044;15.938;2023-03-22T02:34:42;98813.20;;;21.60;46.52
74466;BME280;62916;50.044;15.938;2023-03-22T02:37:35;98814.91;;;21.57;46.50
74466;BME280;62916;50.044;15.938;2023-03-22T02:40:12;98812.82;;;21.53;46.66
74466;BME280;62916;50.044;15.938;2023-03-22T02:42:52;98810.44;;;21.52;46.80
74466;BME280;62916;50.044;15.938;2023-03-22T02:45:30;98807.54;;;21.51;46.81
74466;BME280;62916;50.044;15.938;2023-03-22T02:48:08;98807.94;;;21.51;46.88
74466;BME280;62916;50.044;15.938;2023-03-22T02:50:47;98808.06;;;21.50;46.83
74466;BME280;62916;50.044;15.938;2023-03-22T02:53:23;98805.55;;;21.50;46.87
74466;BME280;62916;50.044;15.938;2023-03-22T02:55:57;98806.84;;;21.50;46.97
74466;BME280;62916;50.044;15.938;2023-03-22T02:58:34;98804.85;;;21.50;46.77
74466;BME280;62916;50.044;15.938;2023-03-22T03:01:09;98809.20;;;21.49;46.88
74466;BME280;62916;50.044;15.938;2023-03-22T03:03:42;98808.70;;;21.48;47.06
74466;BME280;62916;50.044;15.938;2023-03-22T03:06:19;98815.08;;;21.48;47.07
74466;BME280;62916;50.044;15.938;2023-03-22T03:08:54;98817.95;;;21.50;46.99
74466;BME280;62916;50.044;15.938;2023-03-22T03:11:26;98815.21;;;21.48;46.97
74466;BME280;62916;50.044;15.938;2023-03-22T03:13:57;98815.83;;;21.46;47.03
74466;BME280;62916;50.044;15.938;2023-03-22T03:16:31;98814.66;;;21.46;46.90
74466;BME280;62916;50.044;15.938;2023-03-22T03:19:09;98814.34;;;21.46;46.85
74466;BME280;62916;50.044;15.938;2023-03-22T03:21:49;98812.40;;;21.46;46.96
74466;BME280;62916;50.044;15.938;2023-03-22T03:24:28;98815.62;;;21.44;46.97
74466;BME280;62916;50.044;15.938;2023-03-22T03:27:06;98822.16;;;21.43;47.10
74466;BME280;62916;50.044;15.938;2023-03-22T03:29:43;98823.05;;;21.43;47.10
74466;BME280;62916;50.044;15.938;2023-03-22T03:32:18;98829.77;;;21.43;47.16
74466;BME280;62916;50.044;15.938;2023-03-22T03:34:58;98829.60;;;21.43;46.99
74466;BME280;62916;50.044;15.938;2023-03-22T03:37:35;98832.45;;;21.42;46.90
74466;BME280;62916;50.044;15.938;2023-03-22T03:40:11;98839.42;;;21.43;46.99
74466;BME280;62916;50.044;15.938;2023-03-22T03:42:48;98843.30;;;21.41;47.04
74466;BME280;62916;50.044;15.938;2023-03-22T03:45:21;98844.36;;;21.40;47.09
74466;BME280;62916;50.044;15.938;2023-03-22T03:47:54;98849.11;;;21.40;47.18
74466;BME280;62916;50.044;15.938;2023-03-22T03:50:27;98849.05;;;21.40;47.08
74466;BME280;62916;50.044;15.938;2023-03-22T03:52:58;98846.42;;;21.41;47.23
74466;BME280;62916;50.044;15.938;2023-03-22T03:55:30;98847.42;;;21.41;47.32
74466;BME280;62916;50.044;15.938;2023-03-22T03:58:02;98845.93;;;21.42;47.14
74466;BME280;62916;50.044;15.938;2023-03-22T04:00:33;98847.05;;;21.42;47.03
74466;BME280;62916;50.044;15.938;2023-03-22T04:03:04;98848.02;;;21.40;47.18
74466;BME280;62916;50.044;15.938;2023-03-22T04:05:36;98847.65;;;21.40;47.15
74466;BME280;62916;50.044;15.938;2023-03-22T04:08:07;98845.33;;;21.40;47.18
74466;BME280;62916;50.044;15.938;2023-03-22T04:10:39;98848.84;;;21.39;47.27
74466;BME280;62916;50.044;15.938;2023-03-22T04:13:10;98851.20;;;21.38;47.18
74466;BME280;62916;50.044;15.938;2023-03-22T04:15:40;98847.92;;;21.37;47.25
74466;BME280;62916;50.044;15.938;2023-03-22T04:18:11;98851.23;;;21.35;47.22
74466;BME280;62916;50.044;15.938;2023-03-22T04:20:44;98851.88;;;21.33;47.26
74466;BME280;62916;50.044;15.938;2023-03-22T04:23:15;98854.00;;;21.34;47.25
74466;BME280;62916;50.044;15.938;2023-03-22T04:25:46;98849.33;;;21.36;47.20
74466;BME280;62916;50.044;15.938;2023-03-22T04:28:18;98840.92;;;21.34;47.24
74466;BME280;62916;50.044;15.938;2023-03-22T04:30:49;98839.46;;;21.31;47.34
74466;BME280;62916;50.044;15.938;2023-03-22T04:33:20;98838.96;;;21.33;47.24
74466;BME280;62916;50.044;15.938;2023-03-22T04:35:52;98835.95;;;21.34;47.38
74466;BME280;62916;50.044;15.938;2023-03-22T04:38:25;98835.27;;;21.36;47.30
74466;BME280;62916;50.044;15.938;2023-03-22T04:40:56;98834.79;;;21.37;47.27
74466;BME280;62916;50.044;15.938;2023-03-22T04:43:27;98831.44;;;21.36;47.25
74466;BME280;62916;50.044;15.938;2023-03-22T04:45:58;98832.89;;;21.34;47.31
74466;BME280;62916;50.044;15.938;2023-03-22T04:48:30;98837.01;;;21.34;47.56
74466;BME280;62916;50.044;15.938;2023-03-22T04:51:01;98837.45;;;21.39;47.37
74466;BME280;62916;50.044;15.938;2023-03-22T04:53:33;98841.64;;;21.40;46.99
74466;BME280;62916;50.044;15.938;2023-03-22T04:56:09;98840.41;;;21.40;46.95
74466;BME280;62916;50.044;15.938;2023-03-22T04:58:40;98837.59;;;21.42;46.64
74466;BME280;62916;50.044;15.938;2023-03-22T05:01:14;98839.21;;;21.39;46.63
74466;BME280;62916;50.044;15.938;2023-03-22T05:03:44;98835.02;;;21.39;46.37
74466;BME280;62916;50.044;15.938;2023-03-22T05:06:15;98830.02;;;21.38;46.34
74466;BME280;62916;50.044;15.938;2023-03-22T05:08:46;98831.10;;;21.44;46.31
74466;BME280;62916;50.044;15.938;2023-03-22T05:11:18;98832.05;;;21.52;46.36
74466;BME280;62916;50.044;15.938;2023-03-22T05:13:48;98829.86;;;21.61;46.31
74466;BME280;62916;50.044;15.938;2023-03-22T05:16:19;98831.08;;;21.69;46.11
74466;BME280;62916;50.044;15.938;2023-03-22T05:18:51;98833.20;;;21.75;46.11
74466;BME280;62916;50.044;15.938;2023-03-22T05:21:24;98833.02;;;21.78;45.71
74466;BME280;62916;50.044;15.938;2023-03-22T05:23:57;98837.41;;;21.78;45.79
74466;BME280;62916;50.044;15.938;2023-03-22T05:26:28;98843.31;;;21.77;45.74
74466;BME280;62916;50.044;15.938;2023-03-22T05:28:59;98842.54;;;21.71;45.98
74466;BME280;62916;50.044;15.938;2023-03-22T05:31:30;98843.73;;;21.64;45.96
74466;BME280;62916;50.044;15.938;2023-03-22T05:34:03;98844.98;;;21.60;46.18
74466;BME280;62916;50.044;15.938;2023-03-22T05:36:33;98840.45;;;21.54;46.06
74466;BME280;62916;50.044;15.938;2023-03-22T05:39:05;98836.02;;;21.51;46.34
74466;BME280;62916;50.044;15.938;2023-03-22T05:41:36;98837.13;;;21.49;46.32
74466;BME280;62916;50.044;15.938;2023-03-22T05:44:07;98835.36;;;21.47;46.40
74466;BME280;62916;50.044;15.938;2023-03-22T05:46:37;98835.06;;;21.48;46.37
74466;BME280;62916;50.044;15.938;2023-03-22T05:49:08;98836.65;;;21.51;46.21
74466;BME280;62916;50.044;15.938;2023-03-22T05:51:40;98840.67;;;21.52;46.14
74466;BME280;62916;50.044;15.938;2023-03-22T05:54:12;98845.29;;;21.51;46.27
74466;BME280;62916;50.044;15.938;2023-03-22T05:56:43;98846.05;;;21.49;46.22
74466;BME280;62916;50.044;15.938;2023-03-22T05:59:14;98852.12;;;21.51;46.18
74466;BME280;62916;50.044;15.938;2023-03-22T06:01:44;98855.95;;;21.50;45.92
74466;BME280;62916;50.044;15.938;2023-03-22T06:04:15;98862.79;;;21.53;46.03
74466;BME280;62916;50.044;15.938;2023-03-22T06:06:47;98856.85;;;21.48;46.04
74466;BME280;62916;50.044;15.938;2023-03-22T06:09:18;98863.46;;;21.45;46.27
74466;BME280;62916;50.044;15.938;2023-03-22T06:11:49;98862.66;;;21.45;46.11
74466;BME280;62916;50.044;15.938;2023-03-22T06:14:20;98864.52;;;21.47;46.12
74466;BME280;62916;50.044;15.938;2023-03-22T06:16:51;98864.20;;;21.49;46.16
74466;BME280;62916;50.044;15.938;2023-03-22T06:19:22;98858.90;;;21.48;45.95
74466;BME280;62916;50.044;15.938;2023-03-22T06:21:54;98858.32;;;21.43;45.96
74466;BME280;62916;50.044;15.938;2023-03-22T06:24:24;98864.32;;;21.42;46.14
74466;BME280;62916;50.044;15.938;2023-03-22T06:26:55;98871.13;;;21.43;46.08
74466;BME280;62916;50.044;15.938;2023-03-22T06:29:26;98866.70;;;21.40;45.96
74466;BME280;62916;50.044;15.938;2023-03-22T06:31:57;98865.80;;;21.38;46.07
74466;BME280;62916;50.044;15.938;2023-03-22T06:34:27;98864.94;;;21.39;46.06
74466;BME280;62916;50.044;15.938;2023-03-22T06:36:58;98864.47;;;21.39;46.08
74466;BME280;62916;50.044;15.938;2023-03-22T06:39:29;98862.95;;;21.39;45.90
74466;BME280;62916;50.044;15.938;2023-03-22T06:42:00;98864.45;;;21.38;45.85
74466;BME280;62916;50.044;15.938;2023-03-22T06:44:31;98867.30;;;21.38;45.92
74466;BME280;62916;50.044;15.938;2023-03-22T06:47:02;98864.61;;;21.39;45.97
74466;BME280;62916;50.044;15.938;2023-03-22T06:49:32;98869.26;;;21.38;46.03
74466;BME280;62916;50.044;15.938;2023-03-22T06:52:03;98865.33;;;21.36;45.80
74466;BME280;62916;50.044;15.938;2023-03-22T06:54:34;98875.73;;;21.35;45.96
74466;BME280;62916;50.044;15.938;2023-03-22T06:57:05;98874.10;;;21.31;45.94
74466;BME280;62916;50.044;15.938;2023-03-22T06:59:36;98870.34;;;21.35;46.09
74466;BME280;62916;50.044;15.938;2023-03-22T07:02:09;98871.17;;;21.35;45.93
74466;BME280;62916;50.044;15.938;2023-03-22T07:04:41;98870.28;;;21.30;45.93
74466;BME280;62916;50.044;15.938;2023-03-22T07:07:11;98870.89;;;21.28;46.02
74466;BME280;62916;50.044;15.938;2023-03-22T07:09:43;98870.89;;;21.24;45.89
74466;BME280;62916;50.044;15.938;2023-03-22T07:12:13;98867.95;;;21.21;46.11
74466;BME280;62916;50.044;15.938;2023-03-22T07:14:45;98863.84;;;21.19;46.21
74466;BME280;62916;50.044;15.938;2023-03-22T07:17:16;98865.10;;;21.20;46.26
74466;BME280;62916;50.044;15.938;2023-03-22T07:19:46;98867.61;;;21.18;46.20
74466;BME280;62916;50.044;15.938;2023-03-22T07:22:17;98864.06;;;21.17;46.05
74466;BME280;62916;50.044;15.938;2023-03-22T07:24:50;98867.94;;;21.15;46.00
74466;BME280;62916;50.044;15.938;2023-03-22T07:27:27;98863.00;;;21.15;46.07
74466;BME280;62916;50.044;15.938;2023-03-22T07:29:58;98864.63;;;21.15;46.07
74466;BME280;62916;50.044;15.938;2023-03-22T07:32:28;98861.14;;;21.16;45.97
74466;BME280;62916;50.044;15.938;2023-03-22T07:34:59;98860.92;;;21.18;46.07
74466;BME280;62916;50.044;15.938;2023-03-22T07:37:30;98858.10;;;21.18;46.06
74466;BME280;62916;50.044;15.938;2023-03-22T07:40:01;98856.98;;;21.18;46.16
74466;BME280;62916;50.044;15.938;2023-03-22T07:42:33;98854.77;;;21.18;46.03
74466;BME280;62916;50.044;15.938;2023-03-22T07:45:05;98852.45;;;21.18;45.89
74466;BME280;62916;50.044;15.938;2023-03-22T07:47:36;98851.29;;;21.18;46.11
74466;BME280;62916;50.044;15.938;2023-03-22T07:50:10;98854.29;;;21.19;46.03
74466;BME280;62916;50.044;15.938;2023-03-22T07:52:42;98851.59;;;21.20;45.88
74466;BME280;62916;50.044;15.938;2023-03-22T07:55:14;98855.79;;;21.22;45.80
74466;BME280;62916;50.044;15.938;2023-03-22T07:57:45;98854.98;;;21.22;45.74
74466;BME280;62916;50.044;15.938;2023-03-22T08:00:17;98855.83;;;21.25;45.89
74466;BME280;62916;50.044;15.938;2023-03-22T08:02:47;98851.39;;;21.24;45.75
74466;BME280;62916;50.044;15.938;2023-03-22T08:05:18;98852.84;;;21.24;45.78
74466;BME280;62916;50.044;15.938;2023-03-22T08:07:50;98850.52;;;21.26;45.92
74466;BME280;62916;50.044;15.938;2023-03-22T08:10:22;98854.08;;;21.26;46.03
74466;BME280;62916;50.044;15.938;2023-03-22T08:12:53;98854.69;;;21.28;45.74
74466;BME280;62916;50.044;15.938;2023-03-22T08:15:24;98855.48;;;21.29;45.89
74466;BME280;62916;50.044;15.938;2023-03-22T08:17:54;98857.15;;;21.31;45.67
74466;BME280;62916;50.044;15.938;2023-03-22T08:20:26;98855.12;;;21.30;45.58
74466;BME280;62916;50.044;15.938;2023-03-22T08:22:57;98854.65;;;21.31;45.52
74466;BME280;62916;50.044;15.938;2023-03-22T08:25:28;98858.05;;;21.33;45.62
74466;BME280;62916;50.044;15.938;2023-03-22T08:28:00;98856.08;;;21.30;45.49
74466;BME280;62916;50.044;15.938;2023-03-22T08:30:31;98856.02;;;21.30;45.53
74466;BME280;62916;50.044;15.938;2023-03-22T08:33:02;98859.88;;;21.28;45.45
74466;BME280;62916;50.044;15.938;2023-03-22T08:35:35;98863.75;;;21.28;45.47
74466;BME280;62916;50.044;15.938;2023-03-22T08:38:06;98860.96;;;21.29;45.65
74466;BME280;62916;50.044;15.938;2023-03-22T08:40:37;98853.39;;;21.29;45.57
74466;BME280;62916;50.044;15.938;2023-03-22T08:43:08;98856.74;;;21.29;45.44
74466;BME280;62916;50.044;15.938;2023-03-22T08:45:38;98853.30;;;21.27;45.57
74466;BME280;62916;50.044;15.938;2023-03-22T08:48:10;98851.27;;;21.27;45.56
74466;BME280;62916;50.044;15.938;2023-03-22T08:50:40;98845.23;;;21.29;45.48
74466;BME280;62916;50.044;15.938;2023-03-22T08:53:11;98841.19;;;21.29;45.40
74466;BME280;62916;50.044;15.938;2023-03-22T08:55:42;98843.71;;;21.27;45.47
74466;BME280;62916;50.044;15.938;2023-03-22T08:58:14;98842.89;;;21.25;45.55
74466;BME280;62916;50.044;15.938;2023-03-22T09:00:48;98840.34;;;21.24;45.57
74466;BME280;62916;50.044;15.938;2023-03-22T09:03:19;98840.67;;;21.26;45.50
74466;BME280;62916;50.044;15.938;2023-03-22T09:05:51;98832.36;;;21.26;45.45
74466;BME280;62916;50.044;15.938;2023-03-22T09:08:22;98836.14;;;21.24;45.48
74466;BME280;62916;50.044;15.938;2023-03-22T09:10:53;98830.11;;;21.26;45.47
74466;BME280;62916;50.044;15.938;2023-03-22T09:13:23;98826.42;;;21.25;45.31
74466;BME280;62916;50.044;15.938;2023-03-22T09:15:54;98828.92;;;21.24;45.43
74466;BME280;62916;50.044;15.938;2023-03-22T09:18:25;98826.33;;;21.24;45.40
74466;BME280;62916;50.044;15.938;2023-03-22T09:20:56;98823.30;;;21.24;45.42
74466;BME280;62916;50.044;15.938;2023-03-22T09:23:27;98826.75;;;21.22;45.30
74466;BME280;62916;50.044;15.938;2023-03-22T09:26:00;98822.66;;;21.20;45.51
74466;BME280;62916;50.044;15.938;2023-03-22T09:28:31;98820.41;;;21.20;45.59
74466;BME280;62916;50.044;15.938;2023-03-22T09:31:05;98815.84;;;21.19;45.45
74466;BME280;62916;50.044;15.938;2023-03-22T09:33:37;98814.92;;;21.19;45.61
74466;BME280;62916;50.044;15.938;2023-03-22T09:36:10;98815.04;;;21.19;45.43
74466;BME280;62916;50.044;15.938;2023-03-22T09:38:41;98810.29;;;21.21;45.54
74466;BME280;62916;50.044;15.938;2023-03-22T09:41:20;98814.02;;;21.25;45.51
74466;BME280;62916;50.044;15.938;2023-03-22T09:43:55;98808.17;;;21.24;45.45
74466;BME280;62916;50.044;15.938;2023-03-22T09:46:31;98808.27;;;21.24;45.44
74466;BME280;62916;50.044;15.938;2023-03-22T09:49:06;98807.08;;;21.23;45.57
74466;BME280;62916;50.044;15.938;2023-03-22T09:51:42;98802.80;;;21.23;45.43
74466;BME280;62916;50.044;15.938;2023-03-22T09:54:17;98798.73;;;21.23;45.48
74466;BME280;62916;50.044;15.938;2023-03-22T09:56:53;98801.83;;;21.23;45.25
74466;BME280;62916;50.044;15.938;2023-03-22T09:59:31;98804.03;;;21.23;45.42
74466;BME280;62916;50.044;15.938;2023-03-22T10:02:33;98804.62;;;21.20;45.04
74466;BME280;62916;50.044;15.938;2023-03-22T10:05:14;98806.48;;;21.20;45.38
74466;BME280;62916;50.044;15.938;2023-03-22T10:08:07;98801.34;;;21.22;45.35
74466;BME280;62916;50.044;15.938;2023-03-22T10:10:41;98803.03;;;21.22;45.33
74466;BME280;62916;50.044;15.938;2023-03-22T10:13:18;98794.17;;;21.23;45.41
74466;BME280;62916;50.044;15.938;2023-03-22T10:15:54;98792.19;;;21.25;45.10
74466;BME280;62916;50.044;15.938;2023-03-22T10:18:33;98796.03;;;21.26;45.21
74466;BME280;62916;50.044;15.938;2023-03-22T10:21:07;98795.49;;;21.27;45.12
74466;BME280;62916;50.044;15.938;2023-03-22T10:23:40;98791.88;;;21.27;45.13
74466;BME280;62916;50.044;15.938;2023-03-22T10:26:19;98789.91;;;21.26;45.19
74466;BME280;62916;50.044;15.938;2023-03-22T10:28:55;98786.23;;;21.27;45.25
74466;BME280;62916;50.044;15.938;2023-03-22T10:31:33;98782.04;;;21.29;45.09
74466;BME280;62916;50.044;15.938;2023-03-22T10:34:06;98785.53;;;21.29;45.19
74466;BME280;62916;50.044;15.938;2023-03-22T10:36:42;98782.23;;;21.30;45.11
74466;BME280;62916;50.044;15.938;2023-03-22T10:39:21;98779.52;;;21.28;45.12
74466;BME280;62916;50.044;15.938;2023-03-22T10:41:57;98779.09;;;21.30;44.98
74466;BME280;62916;50.044;15.938;2023-03-22T10:44:32;98774.24;;;21.31;45.25
74466;BME280;62916;50.044;15.938;2023-03-22T10:47:07;98775.41;;;21.32;45.03
74466;BME280;62916;50.044;15.938;2023-03-22T10:49:43;98771.16;;;21.31;45.01
74466;BME280;62916;50.044;15.938;2023-03-22T10:52:25;98772.09;;;21.34;44.95
74466;BME280;62916;50.044;15.938;2023-03-22T10:55:04;98772.16;;;21.33;44.96
74466;BME280;62916;50.044;15.938;2023-03-22T10:57:35;98770.38;;;21.33;45.00
74466;BME280;62916;50.044;15.938;2023-03-22T11:00:11;98764.73;;;21.33;44.95
74466;BME280;62916;50.044;15.938;2023-03-22T11:02:52;98769.01;;;21.33;44.96
74466;BME280;62916;50.044;15.938;2023-03-22T11:05:26;98763.00;;;21.32;45.20
74466;BME280;62916;50.044;15.938;2023-03-22T11:07:56;98764.23;;;21.32;45.15
74466;BME280;62916;50.044;15.938;2023-03-22T11:10:30;98761.47;;;21.30;44.99
74466;BME280;62916;50.044;15.938;2023-03-22T11:13:18;98752.08;;;21.33;44.97
74466;BME280;62916;50.044;15.938;2023-03-22T11:15:57;98754.90;;;21.33;44.72
74466;BME280;62916;50.044;15.938;2023-03-22T11:18:31;98747.27;;;21.35;45.16
74466;BME280;62916;50.044;15.938;2023-03-22T11:21:07;98747.77;;;21.36;44.96
74466;BME280;62916;50.044;15.938;2023-03-22T11:23:48;98739.43;;;21.37;44.93
74466;BME280;62916;50.044;15.938;2023-03-22T11:26:28;98734.92;;;21.35;44.64
74466;BME280;62916;50.044;15.938;2023-03-22T11:29:09;98725.80;;;21.36;44.84
74466;BME280;62916;50.044;15.938;2023-03-22T11:31:53;98723.29;;;21.38;44.73
74466;BME280;62916;50.044;15.938;2023-03-22T11:34:27;98723.56;;;21.39;44.83
74466;BME280;62916;50.044;15.938;2023-03-22T11:37:00;98716.05;;;21.38;44.79
74466;BME280;62916;50.044;15.938;2023-03-22T11:39:31;98714.95;;;21.39;44.84
74466;BME280;62916;50.044;15.938;2023-03-22T11:42:03;98708.25;;;21.41;44.90
74466;BME280;62916;50.044;15.938;2023-03-22T11:44:36;98706.91;;;21.41;44.75
74466;BME280;62916;50.044;15.938;2023-03-22T11:47:09;98700.58;;;21.42;44.82
74466;BME280;62916;50.044;15.938;2023-03-22T11:49:46;98697.63;;;21.43;44.78
74466;BME280;62916;50.044;15.938;2023-03-22T11:52:21;98697.23;;;21.43;44.81
74466;BME280;62916;50.044;15.938;2023-03-22T11:54:53;98696.40;;;21.44;44.62
74466;BME280;62916;50.044;15.938;2023-03-22T11:57:26;98692.67;;;21.45;44.75
74466;BME280;62916;50.044;15.938;2023-03-22T12:00:03;98688.50;;;21.46;44.64
74466;BME280;62916;50.044;15.938;2023-03-22T12:02:42;98685.07;;;21.47;44.70
74466;BME280;62916;50.044;15.938;2023-03-22T12:05:19;98683.19;;;21.46;44.67
74466;BME280;62916;50.044;15.938;2023-03-22T12:07:53;98675.31;;;21.47;44.54
74466;BME280;62916;50.044;15.938;2023-03-22T12:10:29;98672.69;;;21.47;44.71
74466;BME280;62916;50.044;15.938;2023-03-22T12:13:02;98670.84;;;21.48;44.72
74466;BME280;62916;50.044;15.938;2023-03-22T12:15:39;98668.98;;;21.48;44.46
74466;BME280;62916;50.044;15.938;2023-03-22T12:18:18;98658.14;;;21.49;44.66
74466;BME280;62916;50.044;15.938;2023-03-22T12:20:55;98663.34;;;21.50;44.64
74466;BME280;62916;50.044;15.938;2023-03-22T12:23:28;98656.53;;;21.52;44.55
74466;BME280;62916;50.044;15.938;2023-03-22T12:26:01;98658.41;;;21.53;44.62
74466;BME280;62916;50.044;15.938;2023-03-22T12:28:39;98655.06;;;21.54;44.68
74466;BME280;62916;50.044;15.938;2023-03-22T12:31:14;98650.48;;;21.53;44.60
74466;BME280;62916;50.044;15.938;2023-03-22T12:33:48;98649.39;;;21.53;44.66
74466;BME280;62916;50.044;15.938;2023-03-22T12:36:25;98645.94;;;21.55;44.67
74466;BME280;62916;50.044;15.938;2023-03-22T12:39:00;98645.59;;;21.57;44.69
74466;BME280;62916;50.044;15.938;2023-03-22T12:41:36;98641.25;;;21.59;44.65
74466;BME280;62916;50.044;15.938;2023-03-22T12:44:12;98632.35;;;21.60;44.53
74466;BME280;62916;50.044;15.938;2023-03-22T12:46:50;98627.58;;;21.60;44.64
74466;BME280;62916;50.044;15.938;2023-03-22T12:49:26;98625.70;;;21.61;44.50
74466;BME280;62916;50.044;15.938;2023-03-22T12:52:09;98623.68;;;21.63;44.51
74466;BME280;62916;50.044;15.938;2023-03-22T12:54:43;98622.83;;;21.62;44.44
74466;BME280;62916;50.044;15.938;2023-03-22T12:57:16;98616.17;;;21.61;44.56
74466;BME280;62916;50.044;15.938;2023-03-22T12:59:50;98604.10;;;21.61;44.61
74466;BME280;62916;50.044;15.938;2023-03-22T13:02:26;98601.27;;;21.61;44.54
74466;BME280;62916;50.044;15.938;2023-03-22T13:05:01;98602.14;;;21.62;44.42
74466;BME280;62916;50.044;15.938;2023-03-22T13:07:35;98596.69;;;21.65;44.49
74466;BME280;62916;50.044;15.938;2023-03-22T13:16:24;98591.70;;;21.65;44.54
74466;BME280;62916;50.044;15.938;2023-03-22T13:19:34;98594.06;;;21.68;44.33
74466;BME280;62916;50.044;15.938;2023-03-22T13:22:18;98586.35;;;21.69;44.38
74466;BME280;62916;50.044;15.938;2023-03-22T13:25:04;98582.95;;;21.69;44.26
74466;BME280;62916;50.044;15.938;2023-03-22T13:27:39;98582.36;;;21.71;44.32
74466;BME280;62916;50.044;15.938;2023-03-22T13:30:23;98579.50;;;21.73;44.32
74466;BME280;62916;50.044;15.938;2023-03-22T13:32:57;98576.39;;;21.72;44.14